createdAt,value
2018-11-27T00:01:17.613Z,101706.17
2018-11-27T00:03:52.106Z,101705.50
2018-11-27T00:06:22.063Z,101705.50
2018-11-27T00:08:51.363Z,101699.48
2018-11-27T00:11:21.131Z,101696.03
2018-11-27T00:13:50.412Z,101699.28
2018-11-27T00:16:19.934Z,101703.88
2018-11-27T00:18:49.453Z,101706.75
2018-11-27T00:21:18.901Z,101702.72
2018-11-27T00:23:48.182Z,101704.45
2018-11-27T00:26:17.727Z,101707.70
2018-11-27T00:28:47.871Z,101711.14
2018-11-27T00:31:17.159Z,101703.30
2018-11-27T00:33:46.472Z,101700.14
2018-11-27T00:36:16.005Z,101701.96
2018-11-27T00:38:45.510Z,101710.00
2018-11-27T00:41:14.985Z,101705.22
2018-11-27T00:43:44.352Z,101708.75
2018-11-27T00:46:20.149Z,101705.41
2018-11-27T00:48:49.648Z,101707.51
2018-11-27T00:51:19.190Z,101710.00
2018-11-27T00:53:48.455Z,101713.82
2018-11-27T00:56:17.933Z,101725.30
2018-11-27T00:58:47.232Z,101726.64
2018-11-27T01:01:16.528Z,101729.30
2018-11-27T01:03:45.908Z,101731.39
2018-11-27T01:06:15.198Z,101733.20
2018-11-27T01:08:44.525Z,101729.39
2018-11-27T01:11:14.344Z,101733.12
2018-11-27T01:13:43.721Z,101730.25
2018-11-27T01:16:13.009Z,101734.84
2018-11-27T01:18:42.314Z,101738.09
2018-11-27T01:21:11.603Z,101735.35
2018-11-27T01:23:40.880Z,101737.51
2018-11-27T01:26:10.615Z,101738.92
2018-11-27T01:28:40.073Z,101739.95
2018-11-27T01:31:09.381Z,101745.95
2018-11-27T01:33:38.878Z,101743.38
2018-11-27T01:36:08.527Z,101742.05
2018-11-27T01:38:37.812Z,101738.05
2018-11-27T01:41:07.717Z,101740.06
2018-11-27T01:43:37.543Z,101743.43
2018-11-27T01:46:06.894Z,101735.69
2018-11-27T01:48:36.777Z,101740.35
2018-11-27T01:51:06.268Z,101737.39
2018-11-27T01:53:35.664Z,101739.23
2018-11-27T01:56:05.457Z,101740.66
2018-11-27T01:58:34.770Z,101742.08
2018-11-27T02:01:04.022Z,101751.41
2018-11-27T02:03:33.421Z,101749.13
2018-11-27T02:06:02.932Z,101742.17
2018-11-27T02:08:32.573Z,101754.65
2018-11-27T02:11:01.964Z,101750.84
2018-11-27T02:13:31.438Z,101756.46
2018-11-27T02:16:00.677Z,101756.17
2018-11-27T02:18:30.628Z,101752.77
2018-11-27T02:20:59.951Z,101758.86
2018-11-27T02:23:29.565Z,101758.86
2018-11-27T02:25:58.829Z,101756.03
2018-11-27T02:28:28.276Z,101760.99
2018-11-27T02:30:57.774Z,101748.77
2018-11-27T02:33:28.343Z,101751.24
2018-11-27T02:35:57.830Z,101746.00
2018-11-27T02:38:27.168Z,101748.02
2018-11-27T02:40:56.813Z,101747.21
2018-11-27T02:43:26.149Z,101750.45
2018-11-27T02:45:55.688Z,101753.81
2018-11-27T02:48:25.022Z,101760.77
2018-11-27T02:50:54.463Z,101763.24
2018-11-27T02:53:24.140Z,101762.31
2018-11-27T02:55:53.721Z,101757.12
2018-11-27T02:58:22.987Z,101760.45
2018-11-27T03:00:52.498Z,101767.87
2018-11-27T03:03:21.918Z,101769.00
2018-11-27T03:05:51.192Z,101772.72
2018-11-27T03:08:20.485Z,101779.52
2018-11-27T03:10:49.772Z,101780.47
2018-11-27T03:13:19.049Z,101777.41
2018-11-27T03:15:48.322Z,101772.36
2018-11-27T03:18:17.619Z,101779.41
2018-11-27T03:20:46.841Z,101780.93
2018-11-27T03:23:16.193Z,101789.22
2018-11-27T03:25:48.863Z,101790.14
2018-11-27T03:28:18.504Z,101792.61
2018-11-27T03:30:47.804Z,101792.28
2018-11-27T03:33:17.202Z,101791.98
2018-11-27T03:35:47.333Z,101799.92
2018-11-27T03:38:16.572Z,101798.31
2018-11-27T03:40:45.866Z,101808.39
2018-11-27T03:43:15.296Z,101801.77
2018-11-27T03:45:44.874Z,101801.62
2018-11-27T03:48:14.432Z,101798.91
2018-11-27T03:50:43.813Z,101799.69
2018-11-27T03:53:13.315Z,101798.67
2018-11-27T03:55:42.758Z,101801.17
2018-11-27T03:58:12.099Z,101806.94
2018-11-27T04:00:41.368Z,101809.02
2018-11-27T04:03:13.801Z,101812.55
2018-11-27T04:05:44.534Z,101814.88
2018-11-27T04:08:13.788Z,101816.98
2018-11-27T04:10:43.746Z,101814.75
2018-11-27T04:13:13.024Z,101810.91
2018-11-27T04:15:42.388Z,101814.40
2018-11-27T04:18:12.349Z,101823.34
2018-11-27T04:20:41.838Z,101816.16
2018-11-27T04:23:11.104Z,101821.62
2018-11-27T04:25:40.515Z,101821.72
2018-11-27T04:28:09.829Z,101825.16
2018-11-27T04:30:39.256Z,101822.55
2018-11-27T04:33:08.918Z,101822.81
2018-11-27T04:35:38.439Z,101828.55
2018-11-27T04:38:07.869Z,101824.36
2018-11-27T04:40:37.235Z,101826.79
2018-11-27T04:43:07.062Z,101833.13
2018-11-27T04:45:36.318Z,101833.27
2018-11-27T04:48:05.770Z,101842.84
2018-11-27T04:50:35.443Z,101839.81
2018-11-27T04:53:04.943Z,101840.84
2018-11-27T04:55:34.875Z,101846.11
2018-11-27T04:58:04.338Z,101852.19
2018-11-27T05:00:34.041Z,101852.75
2018-11-27T05:03:03.518Z,101857.89
2018-11-27T05:05:32.797Z,101857.20
2018-11-27T05:08:02.302Z,101853.75
2018-11-27T05:10:31.612Z,101845.00
2018-11-27T05:13:00.994Z,101848.96
2018-11-27T05:15:30.635Z,101857.23
2018-11-27T05:18:00.529Z,101853.82
2018-11-27T05:20:29.962Z,101852.06
2018-11-27T05:22:59.216Z,101851.02
2018-11-27T05:25:29.340Z,101855.89
2018-11-27T05:27:59.002Z,101859.19
2018-11-27T05:30:29.658Z,101862.64
2018-11-27T05:32:59.235Z,101861.52
2018-11-27T05:35:30.642Z,101857.03
2018-11-27T05:38:02.123Z,101859.44
2018-11-27T05:40:31.512Z,101860.69
2018-11-27T05:43:06.622Z,101864.27
2018-11-27T05:45:35.923Z,101862.59
2018-11-27T05:48:05.581Z,101869.91
2018-11-27T05:50:34.953Z,101872.41
2018-11-27T05:53:05.620Z,101871.47
2018-11-27T05:55:35.532Z,101871.38
2018-11-27T05:58:05.051Z,101877.23
2018-11-27T06:00:34.385Z,101883.44
2018-11-27T06:03:03.831Z,101883.97
2018-11-27T06:05:33.406Z,101890.20
2018-11-27T06:08:02.724Z,101893.30
2018-11-27T06:10:32.223Z,101891.18
2018-11-27T06:13:01.671Z,101901.91
2018-11-27T06:15:31.291Z,101898.06
2018-11-27T06:18:03.281Z,101915.75
2018-11-27T06:20:33.468Z,101908.68
2018-11-27T06:23:02.798Z,101908.14
2018-11-27T06:25:33.269Z,101901.94
2018-11-27T06:28:08.637Z,101903.03
2018-11-27T06:30:37.908Z,101908.20
2018-11-27T06:33:07.721Z,101910.30
2018-11-27T06:35:40.701Z,101909.37
2018-11-27T06:38:12.120Z,101916.83
2018-11-27T06:40:42.782Z,101922.41
2018-11-27T06:43:13.258Z,101932.86
2018-11-27T06:45:44.313Z,101927.45
2018-11-27T06:48:13.664Z,101929.41
2018-11-27T06:50:42.929Z,101934.83
2018-11-27T06:53:13.622Z,101943.29
2018-11-27T06:55:42.943Z,101946.81
2018-11-27T06:58:12.433Z,101946.67
2018-11-27T07:00:41.877Z,101957.41
2018-11-27T07:03:14.184Z,101947.03
2018-11-27T07:05:43.471Z,101955.73
2018-11-27T07:08:12.722Z,101954.14
2018-11-27T07:10:44.485Z,101957.32
2018-11-27T07:13:19.631Z,101963.00
2018-11-27T07:15:50.333Z,101973.64
2018-11-27T07:18:19.738Z,101964.72
2018-11-27T07:20:48.998Z,101971.59
2018-11-27T07:23:18.330Z,101968.39
2018-11-27T07:25:47.618Z,101967.92
2018-11-27T07:28:16.917Z,101978.37
2018-11-27T07:30:46.615Z,101976.76
2018-11-27T07:33:15.911Z,101985.64
2018-11-27T07:35:45.277Z,101989.98
2018-11-27T07:38:14.601Z,101998.31
2018-11-27T07:40:44.067Z,101996.05
2018-11-27T07:43:14.206Z,102001.27
2018-11-27T07:45:43.604Z,102003.17
2018-11-27T07:48:12.885Z,102003.78
2018-11-27T07:50:42.288Z,102007.64
2018-11-27T07:53:12.000Z,102008.03
2018-11-27T07:55:42.194Z,102010.89
2018-11-27T07:58:11.921Z,102012.82
2018-11-27T08:00:41.370Z,102010.75
2018-11-27T08:03:10.742Z,102019.20
2018-11-27T08:05:42.175Z,102027.47
2018-11-27T08:08:18.518Z,102028.83
2018-11-27T08:10:49.405Z,102026.92
2018-11-27T08:13:18.834Z,102020.67
2018-11-27T08:15:48.458Z,102029.59
2018-11-27T08:18:17.913Z,102027.84
2018-11-27T08:20:47.451Z,102034.86
2018-11-27T08:23:17.222Z,102033.95
2018-11-27T08:25:46.519Z,102033.74
2018-11-27T08:28:15.822Z,102034.77
2018-11-27T08:30:45.393Z,102037.80
2018-11-27T08:33:14.941Z,102038.05
2018-11-27T08:35:44.275Z,102033.99
2018-11-27T08:38:13.780Z,102032.95
2018-11-27T08:40:43.482Z,102034.37
2018-11-27T08:43:12.772Z,102044.28
2018-11-27T08:45:42.339Z,102047.78
2018-11-27T08:48:12.564Z,102045.88
2018-11-27T08:50:42.915Z,102042.38
2018-11-27T08:53:12.256Z,102045.81
2018-11-27T08:55:44.515Z,102053.29
2018-11-27T08:58:20.366Z,102056.36
2018-11-27T09:00:50.027Z,102062.22
2018-11-27T09:03:19.918Z,102066.61
2018-11-27T09:05:49.394Z,102063.34
2018-11-27T09:08:18.999Z,102068.92
2018-11-27T09:10:48.323Z,102064.88
2018-11-27T09:13:17.762Z,102067.09
2018-11-27T09:15:47.082Z,102066.47
2018-11-27T09:18:25.897Z,102072.36
2018-11-27T09:20:55.197Z,102079.72
2018-11-27T09:23:24.588Z,102083.91
2018-11-27T09:25:53.990Z,102097.07
2018-11-27T09:28:23.808Z,102096.45
2018-11-27T09:30:53.464Z,102101.09
2018-11-27T09:33:22.987Z,102100.70
2018-11-27T09:35:53.277Z,102105.73
2018-11-27T09:38:22.577Z,102111.05
2018-11-27T09:40:52.414Z,102113.78
2018-11-27T09:43:21.857Z,102120.78
2018-11-27T09:45:51.500Z,102124.09
2018-11-27T09:48:20.787Z,102117.58
2018-11-27T09:50:51.125Z,102116.44
2018-11-27T09:53:20.587Z,102116.92
2018-11-27T09:55:50.590Z,102121.58
2018-11-27T09:58:19.943Z,102123.19
2018-11-27T10:00:49.278Z,102128.89
2018-11-27T10:03:18.648Z,102135.54
2018-11-27T10:05:47.967Z,102137.84
2018-11-27T10:08:17.248Z,102135.24
2018-11-27T10:10:46.620Z,102145.81
2018-11-27T10:13:16.233Z,102145.23
2018-11-27T10:15:45.513Z,102141.00
2018-11-27T10:18:14.811Z,102142.41
2018-11-27T10:20:44.297Z,102134.13
2018-11-27T10:23:15.545Z,102134.20
2018-11-27T10:25:44.940Z,102126.39
2018-11-27T10:28:14.273Z,102130.22
2018-11-27T10:30:43.592Z,102126.81
2018-11-27T10:33:13.757Z,102127.28
2018-11-27T10:35:51.963Z,102130.77
2018-11-27T10:38:21.370Z,102126.69
2018-11-27T10:40:50.959Z,102125.08
2018-11-27T10:43:20.302Z,102125.77
2018-11-27T10:45:49.657Z,102123.42
2018-11-27T10:48:19.238Z,102117.20
2018-11-27T10:50:48.758Z,102111.02
2018-11-27T10:53:18.412Z,102112.64
2018-11-27T10:55:47.930Z,102106.92
2018-11-27T10:58:17.571Z,102109.66
2018-11-27T11:00:52.130Z,102118.55
2018-11-27T11:03:37.924Z,102110.63
2018-11-27T11:06:08.871Z,102104.45
2018-11-27T11:08:38.186Z,102108.80
2018-11-27T11:11:08.667Z,102108.36
2018-11-27T11:13:38.396Z,102113.88
2018-11-27T11:16:08.441Z,102110.13
2018-11-27T11:18:38.016Z,102111.48
2018-11-27T11:21:08.092Z,102120.31
2018-11-27T11:23:37.357Z,102126.02
2018-11-27T11:26:07.491Z,102117.96
2018-11-27T11:28:36.853Z,102130.02
2018-11-27T11:31:07.002Z,102128.51
2018-11-27T11:33:36.339Z,102140.41
2018-11-27T11:36:06.430Z,102141.41
2018-11-27T11:38:36.188Z,102142.30
2018-11-27T11:41:06.470Z,102134.72
2018-11-27T11:43:35.901Z,102137.28
2018-11-27T11:46:05.731Z,102132.06
2018-11-27T11:48:35.196Z,102134.44
2018-11-27T11:51:04.906Z,102135.63
2018-11-27T11:53:34.252Z,102132.50
2018-11-27T11:56:03.590Z,102138.02
2018-11-27T11:58:33.579Z,102137.65
2018-11-27T12:01:02.937Z,102136.80
2018-11-27T12:03:32.218Z,102139.89
2018-11-27T12:06:01.755Z,102137.12
2018-11-27T12:08:31.273Z,102141.42
2018-11-27T12:11:00.569Z,102147.95
2018-11-27T12:13:30.122Z,102138.52
2018-11-27T12:15:59.403Z,102148.59
2018-11-27T12:18:28.698Z,102142.61
2018-11-27T12:20:58.535Z,102136.00
2018-11-27T12:23:28.078Z,102142.02
2018-11-27T12:25:57.346Z,102142.42
2018-11-27T12:28:26.716Z,102145.70
2018-11-27T12:30:56.205Z,102151.41
2018-11-27T12:33:25.516Z,102152.03
2018-11-27T12:35:54.831Z,102154.10
2018-11-27T12:38:24.180Z,102146.85
2018-11-27T12:40:53.488Z,102158.70
2018-11-27T12:43:23.180Z,102156.04
2018-11-27T12:45:52.482Z,102155.11
2018-11-27T12:48:21.789Z,102146.56
2018-11-27T12:50:51.159Z,102143.68
2018-11-27T12:53:20.475Z,102149.64
2018-11-27T12:55:51.335Z,102156.25
2018-11-27T12:58:20.702Z,102143.62
2018-11-27T13:00:50.326Z,102151.93
2018-11-27T13:03:19.781Z,102156.00
2018-11-27T13:05:56.447Z,102159.92
2018-11-27T13:08:25.957Z,102163.75
2018-11-27T13:10:55.267Z,102162.11
2018-11-27T13:13:24.789Z,102156.80
2018-11-27T13:15:54.283Z,102163.04
2018-11-27T13:18:23.900Z,102161.95
2018-11-27T13:20:53.586Z,102164.39
2018-11-27T13:23:22.879Z,102162.79
2018-11-27T13:25:52.315Z,102160.12
2018-11-27T13:28:22.249Z,102167.72
2018-11-27T13:31:12.981Z,102153.73
2018-11-27T13:34:20.893Z,102158.78
2018-11-27T13:36:50.347Z,102168.61
2018-11-27T13:39:34.270Z,102166.02
2018-11-27T13:42:03.615Z,102165.53
2018-11-27T13:44:33.512Z,102165.53
2018-11-27T13:47:03.258Z,102166.86
2018-11-27T13:49:32.492Z,102167.59
2018-11-27T13:52:01.823Z,102173.25
2018-11-27T13:54:31.168Z,102174.05
2018-11-27T13:57:00.462Z,102178.70
2018-11-27T13:59:29.826Z,102179.85
2018-11-27T14:01:59.193Z,102181.06
2018-11-27T14:04:28.518Z,102180.45
2018-11-27T14:06:58.004Z,102190.91
2018-11-27T14:09:27.573Z,102190.50
2018-11-27T14:11:56.867Z,102190.20
2018-11-27T14:14:26.169Z,102196.30
2018-11-27T14:16:55.533Z,102190.70
2018-11-27T14:19:24.874Z,102195.73
2018-11-27T14:21:54.149Z,102194.06
2018-11-27T14:24:23.512Z,102198.88
2018-11-27T14:26:52.843Z,102196.56
2018-11-27T14:29:22.472Z,102201.57
2018-11-27T14:31:51.982Z,102192.87
2018-11-27T14:34:21.267Z,102196.52
2018-11-27T14:36:50.571Z,102200.35
2018-11-27T14:39:20.066Z,102200.08
2018-11-27T14:41:49.364Z,102204.48
2018-11-27T14:44:18.664Z,102209.48
2018-11-27T14:46:47.975Z,102211.06
2018-11-27T14:49:17.221Z,102222.83
2018-11-27T14:51:46.558Z,102221.69
2018-11-27T14:54:16.248Z,102211.25
2018-11-27T14:56:45.594Z,102213.59
2018-11-27T14:59:14.880Z,102222.91
2018-11-27T15:01:44.222Z,102214.16
2018-11-27T15:04:13.513Z,102218.52
2018-11-27T15:06:42.841Z,102219.97
2018-11-27T15:09:12.148Z,102221.00
2018-11-27T15:11:41.479Z,102222.71
2018-11-27T15:14:10.787Z,102220.16
2018-11-27T15:16:40.800Z,102218.66
2018-11-27T15:19:10.170Z,102224.02
2018-11-27T15:21:40.260Z,102214.78
2018-11-27T15:24:09.609Z,102217.01
2018-11-27T15:26:38.874Z,102216.23
2018-11-27T15:29:08.208Z,102217.45
2018-11-27T15:31:37.493Z,102226.56
2018-11-27T15:34:07.237Z,102230.03
2018-11-27T15:36:37.120Z,102230.25
2018-11-27T15:39:10.148Z,102237.16
2018-11-27T15:41:39.589Z,102235.26
2018-11-27T15:44:08.932Z,102238.02
2018-11-27T15:46:38.285Z,102240.09
2018-11-27T15:49:07.673Z,102245.88
2018-11-27T15:51:37.057Z,102244.48
2018-11-27T15:54:06.757Z,102249.83
2018-11-27T15:56:36.089Z,102243.50
2018-11-27T15:59:05.554Z,102248.92
2018-11-27T16:01:35.131Z,102250.34
2018-11-27T16:04:04.532Z,102249.72
2018-11-27T16:06:33.962Z,102247.99
2018-11-27T16:09:03.309Z,102249.14
2018-11-27T16:11:32.707Z,102258.30
2018-11-27T16:14:02.057Z,102257.91
2018-11-27T16:16:32.361Z,102256.80
2018-11-27T16:19:01.733Z,102256.34
2018-11-27T16:21:31.046Z,102253.11
2018-11-27T16:24:00.477Z,102257.03
2018-11-27T16:26:29.803Z,102252.95
2018-11-27T16:28:59.251Z,102258.77
2018-11-27T16:31:28.613Z,102253.11
2018-11-27T16:33:57.927Z,102248.45
2018-11-27T16:36:27.237Z,102250.83
2018-11-27T16:38:56.775Z,102262.94
2018-11-27T16:41:26.150Z,102262.00
2018-11-27T16:43:55.520Z,102272.39
2018-11-27T16:46:25.242Z,102271.37
2018-11-27T16:48:54.523Z,102269.63
2018-11-27T16:51:23.845Z,102271.60
2018-11-27T16:53:53.274Z,102271.36
2018-11-27T16:56:22.623Z,102264.08
2018-11-27T16:58:51.946Z,102271.50
2018-11-27T17:01:21.343Z,102276.34
2018-11-27T17:03:50.683Z,102270.87
2018-11-27T17:06:19.998Z,102270.67
2018-11-27T17:08:49.589Z,102271.88
2018-11-27T17:11:18.925Z,102276.44
2018-11-27T17:13:48.240Z,102282.11
2018-11-27T17:16:17.578Z,102295.27
2018-11-27T17:18:46.861Z,102283.47
2018-11-27T17:21:16.213Z,102291.97
2018-11-27T17:23:45.559Z,102290.97
2018-11-27T17:26:14.868Z,102300.41
2018-11-27T17:28:44.214Z,102300.73
2018-11-27T17:31:15.989Z,102297.92
2018-11-27T17:33:57.309Z,102300.70
2018-11-27T17:36:26.772Z,102296.66
2018-11-27T17:38:56.117Z,102297.06
2018-11-27T17:41:25.453Z,102303.50
2018-11-27T17:43:54.817Z,102311.80
2018-11-27T17:46:24.484Z,102315.56
2018-11-27T17:48:53.827Z,102307.06
2018-11-27T17:51:23.617Z,102311.52
2018-11-27T17:53:52.996Z,102311.77
2018-11-27T17:56:22.323Z,102308.63
2018-11-27T17:58:51.810Z,102311.27
2018-11-27T18:01:21.457Z,102310.91
2018-11-27T18:03:50.769Z,102319.39
2018-11-27T18:06:20.391Z,102315.04
2018-11-27T18:08:49.888Z,102317.00
2018-11-27T18:11:19.215Z,102318.45
2018-11-27T18:13:49.036Z,102322.71
2018-11-27T18:16:18.479Z,102324.20
2018-11-27T18:18:47.807Z,102325.17
2018-11-27T18:21:17.196Z,102330.70
2018-11-27T18:23:46.653Z,102332.17
2018-11-27T18:26:16.124Z,102339.18
2018-11-27T18:28:45.471Z,102339.52
2018-11-27T18:31:14.823Z,102341.98
2018-11-27T18:33:44.165Z,102341.03
2018-11-27T18:36:13.842Z,102346.78
2018-11-27T18:38:43.169Z,102345.05
2018-11-27T18:41:12.462Z,102347.65
2018-11-27T18:43:41.825Z,102347.65
2018-11-27T18:46:11.312Z,102346.53
2018-11-27T18:48:40.767Z,102349.47
2018-11-27T18:51:10.185Z,102347.53
2018-11-27T18:53:39.575Z,102345.02
2018-11-27T18:56:08.981Z,102341.22
2018-11-27T18:58:38.693Z,102336.14
2018-11-27T19:01:08.021Z,102335.28
2018-11-27T19:03:37.615Z,102348.89
2018-11-27T19:06:07.302Z,102347.48
2018-11-27T19:08:36.812Z,102349.47
2018-11-27T19:11:07.089Z,102357.74
2018-11-27T19:13:36.055Z,102354.23
2018-11-27T19:16:06.342Z,102355.71
2018-11-27T19:18:35.850Z,102361.59
2018-11-27T19:21:05.693Z,102365.74
2018-11-27T19:23:35.144Z,102361.21
2018-11-27T19:26:04.603Z,102355.64
2018-11-27T19:28:34.005Z,102363.94
2018-11-27T19:31:03.534Z,102368.69
2018-11-27T19:33:32.970Z,102367.75
2018-11-27T19:36:02.547Z,102366.73
2018-11-27T19:38:31.935Z,102373.06
2018-11-27T19:41:01.325Z,102367.47
2018-11-27T19:43:30.799Z,102367.05
2018-11-27T19:46:00.410Z,102364.08
2018-11-27T19:48:29.804Z,102362.69
2018-11-27T19:50:59.353Z,102366.56
2018-11-27T19:53:28.797Z,102372.17
2018-11-27T19:55:58.170Z,102367.09
2018-11-27T19:58:27.645Z,102377.38
2018-11-27T20:00:57.214Z,102376.58
2018-11-27T20:03:26.650Z,102379.84
2018-11-27T20:05:56.813Z,102392.20
2018-11-27T20:08:26.241Z,102395.84
2018-11-27T20:10:55.788Z,102388.83
2018-11-27T20:13:25.252Z,102393.59
2018-11-27T20:15:54.789Z,102395.07
2018-11-27T20:18:24.239Z,102385.98
2018-11-27T20:20:53.643Z,102384.18
2018-11-27T20:23:23.107Z,102387.91
2018-11-27T20:25:52.686Z,102402.61
2018-11-27T20:28:22.307Z,102405.49
2018-11-27T20:30:51.676Z,102417.44
2018-11-27T20:33:21.324Z,102417.78
2018-11-27T20:35:50.885Z,102423.26
2018-11-27T20:38:20.239Z,102419.59
2018-11-27T20:40:49.623Z,102430.80
2018-11-27T20:43:18.996Z,102422.32
2018-11-27T20:45:48.374Z,102434.80
2018-11-27T20:48:20.257Z,102428.70
2018-11-27T20:50:51.577Z,102422.08
2018-11-27T20:53:21.063Z,102414.58
2018-11-27T20:55:50.774Z,102413.19
2018-11-27T20:58:20.155Z,102415.67
2018-11-27T21:00:51.803Z,102424.05
2018-11-27T21:03:21.833Z,102424.95
2018-11-27T21:05:51.279Z,102423.73
2018-11-27T21:08:20.722Z,102425.03
2018-11-27T21:10:50.246Z,102417.25
2018-11-27T21:13:20.372Z,102414.06
2018-11-27T21:15:49.847Z,102418.49
2018-11-27T21:18:19.189Z,102421.52
2018-11-27T21:20:48.555Z,102416.30
2018-11-27T21:23:17.991Z,102416.53
2018-11-27T21:25:47.391Z,102420.03
2018-11-27T21:28:18.493Z,102422.58
2018-11-27T21:30:52.069Z,102407.79
2018-11-27T21:33:21.402Z,102401.02
2018-11-27T21:35:50.678Z,102394.95
2018-11-27T21:38:20.014Z,102401.41
2018-11-27T21:40:49.299Z,102403.66
2018-11-27T21:43:18.714Z,102408.86
2018-11-27T21:45:48.098Z,102407.81
2018-11-27T21:48:17.395Z,102416.44
2018-11-27T21:50:46.725Z,102422.00
2018-11-27T21:53:16.423Z,102415.86
2018-11-27T21:55:45.965Z,102419.33
2018-11-27T21:58:15.334Z,102416.14
2018-11-27T22:00:44.754Z,102413.69
2018-11-27T22:03:14.124Z,102412.63
2018-11-27T22:05:43.486Z,102413.47
2018-11-27T22:08:12.838Z,102417.36
2018-11-27T22:10:42.266Z,102413.60
2018-11-27T22:13:14.856Z,102428.49
2018-11-27T22:15:45.450Z,102428.76
2018-11-27T22:18:15.239Z,102427.27
2018-11-27T22:20:44.530Z,102425.02
2018-11-27T22:23:13.912Z,102427.55
2018-11-27T22:25:43.252Z,102419.50
2018-11-27T22:28:12.620Z,102422.77
2018-11-27T22:30:41.974Z,102421.09
2018-11-27T22:33:11.251Z,102416.27
2018-11-27T22:35:41.068Z,102412.22
2018-11-27T22:38:10.332Z,102419.24
2018-11-27T22:40:39.634Z,102423.00
2018-11-27T22:43:09.145Z,102425.50
2018-11-27T22:45:40.962Z,102419.41
2018-11-27T22:48:12.235Z,102419.64
2018-11-27T22:50:41.445Z,102415.06
2018-11-27T22:53:10.941Z,102416.98
2018-11-27T22:55:40.349Z,102419.24
2018-11-27T22:58:09.975Z,102420.63
2018-11-27T23:00:44.613Z,102423.86
2018-11-27T23:03:13.936Z,102423.59
2018-11-27T23:05:43.857Z,102424.86
2018-11-27T23:08:13.180Z,102415.94
2018-11-27T23:10:44.505Z,102417.61
2018-11-27T23:13:14.140Z,102417.30
2018-11-27T23:15:43.454Z,102416.57
2018-11-27T23:18:12.817Z,102418.78
2018-11-27T23:20:42.245Z,102421.31
2018-11-27T23:23:11.600Z,102416.31
2018-11-27T23:25:41.007Z,102423.89
2018-11-27T23:28:10.367Z,102428.45
2018-11-27T23:30:39.640Z,102429.10
2018-11-27T23:33:08.939Z,102431.16
2018-11-27T23:35:38.435Z,102422.93
2018-11-27T23:38:07.715Z,102423.48
2018-11-27T23:40:37.289Z,102418.73
2018-11-27T23:43:07.091Z,102425.31
2018-11-27T23:45:36.403Z,102422.38
2018-11-27T23:48:05.975Z,102428.14
2018-11-27T23:50:35.317Z,102433.52
2018-11-27T23:53:04.616Z,102426.09
2018-11-27T23:55:33.943Z,102426.75
2018-11-27T23:58:03.361Z,102419.39
